createdAt,value
2023-03-12T00:01:22.230Z,83.83
2023-03-12T00:06:30.243Z,84.08
2023-03-12T00:11:36.786Z,84.14
2023-03-12T00:16:43.591Z,84.48
2023-03-12T00:21:51.885Z,84.55
2023-03-12T00:26:58.615Z,84.61
2023-03-12T00:32:05.310Z,84.87
2023-03-12T00:37:13.439Z,84.68
2023-03-12T00:42:21.102Z,84.90
2023-03-12T00:47:27.615Z,84.77
2023-03-12T00:52:35.776Z,84.48
2023-03-12T00:57:42.373Z,84.78
2023-03-12T01:02:49.045Z,84.67
2023-03-12T01:07:57.146Z,84.61
2023-03-12T01:13:03.814Z,84.85
2023-03-12T01:18:10.350Z,84.72
2023-03-12T01:23:18.538Z,84.51
2023-03-12T01:28:26.083Z,84.39
2023-03-12T01:33:32.557Z,84.36
2023-03-12T01:38:40.515Z,84.29
2023-03-12T01:43:47.448Z,84.29
2023-03-12T01:49:01.384Z,84.30
2023-03-12T01:54:17.480Z,84.37
2023-03-12T01:59:32.281Z,84.06
2023-03-12T02:04:41.673Z,84.31
2023-03-12T02:09:52.646Z,84.35
2023-03-12T02:14:59.487Z,84.54
2023-03-12T02:20:18.700Z,85.50
2023-03-12T02:25:37.055Z,83.84
2023-03-12T02:30:48.076Z,84.10
2023-03-12T02:35:56.406Z,84.35
2023-03-12T02:41:15.404Z,84.47
2023-03-12T02:46:23.131Z,84.58
2023-03-12T02:51:29.980Z,84.47
2023-03-12T02:56:38.650Z,84.33
2023-03-12T03:01:45.850Z,84.36
2023-03-12T03:06:52.794Z,84.63
2023-03-12T03:12:01.179Z,84.60
2023-03-12T03:17:10.295Z,84.55
2023-03-12T03:22:16.975Z,84.61
2023-03-12T03:27:24.983Z,84.50
2023-03-12T03:32:32.954Z,84.57
2023-03-12T03:37:39.768Z,84.65
2023-03-12T03:42:47.946Z,84.34
2023-03-12T03:47:54.959Z,84.80
2023-03-12T03:53:01.760Z,84.68
2023-03-12T03:58:10.205Z,84.54
2023-03-12T04:03:18.692Z,84.61
2023-03-12T04:08:25.358Z,83.87
2023-03-12T04:13:33.230Z,84.25
2023-03-12T04:18:40.669Z,84.63
2023-03-12T04:23:47.801Z,84.33
2023-03-12T04:28:56.882Z,84.22
2023-03-12T04:34:04.251Z,84.47
2023-03-12T04:39:11.271Z,84.25
2023-03-12T04:44:19.426Z,84.28
2023-03-12T04:49:26.134Z,84.27
2023-03-12T04:54:34.565Z,84.22
2023-03-12T04:59:43.094Z,84.36
2023-03-12T05:04:49.777Z,84.11
2023-03-12T05:09:56.839Z,83.92
2023-03-12T05:15:05.480Z,84.19
2023-03-12T05:20:14.168Z,84.07
2023-03-12T05:25:21.517Z,84.10
2023-03-12T05:30:29.304Z,84.26
2023-03-12T05:35:35.878Z,83.78
2023-03-12T05:40:42.284Z,83.98
2023-03-12T05:45:51.397Z,84.06
2023-03-12T05:50:58.827Z,84.06
2023-03-12T05:56:07.374Z,83.90
2023-03-12T06:01:18.331Z,84.03
2023-03-12T06:06:25.349Z,83.87
2023-03-12T06:11:33.726Z,83.67
2023-03-12T06:16:41.889Z,83.30
2023-03-12T06:21:49.049Z,82.94
2023-03-12T06:26:56.138Z,82.92
2023-03-12T06:32:04.260Z,82.92
2023-03-12T06:37:12.113Z,82.63
2023-03-12T06:42:20.064Z,82.62
2023-03-12T06:47:28.089Z,82.56
2023-03-12T06:52:34.741Z,82.21
2023-03-12T06:57:41.314Z,82.20
2023-03-12T07:02:49.400Z,82.04
2023-03-12T07:07:58.525Z,81.70
2023-03-12T07:13:05.012Z,81.43
2023-03-12T07:18:14.726Z,81.26
2023-03-12T07:23:21.582Z,81.26
2023-03-12T07:28:28.260Z,80.90
2023-03-12T07:33:37.001Z,80.77
2023-03-12T07:38:43.735Z,80.56
2023-03-12T07:43:50.215Z,80.33
2023-03-12T07:48:58.069Z,79.76
2023-03-12T07:54:04.666Z,79.62
2023-03-12T07:59:11.448Z,78.89
2023-03-12T08:04:19.897Z,78.47
2023-03-12T08:09:29.801Z,77.99
2023-03-12T08:14:37.221Z,77.49
2023-03-12T08:19:48.550Z,77.34
2023-03-12T08:24:55.490Z,76.83
2023-03-12T08:30:02.503Z,77.54
2023-03-12T08:35:11.890Z,76.33
2023-03-12T08:40:19.155Z,75.84
2023-03-12T08:45:25.731Z,75.46
2023-03-12T08:50:33.731Z,75.23
2023-03-12T08:55:40.194Z,75.42
2023-03-12T09:00:46.532Z,75.07
2023-03-12T09:06:06.630Z,74.40
2023-03-12T09:11:14.958Z,74.04
2023-03-12T09:16:21.604Z,73.57
2023-03-12T09:21:31.648Z,73.19
2023-03-12T09:26:38.397Z,72.98
2023-03-12T09:31:44.977Z,71.28
2023-03-12T09:36:52.887Z,71.67
2023-03-12T09:41:59.576Z,71.94
2023-03-12T09:47:12.957Z,71.22
2023-03-12T09:52:30.063Z,72.28
2023-03-12T09:57:37.074Z,71.36
2023-03-12T10:03:20.072Z,71.43
2023-03-12T10:08:41.992Z,69.95
2023-03-12T10:14:23.365Z,70.07
2023-03-12T10:19:57.325Z,70.94
2023-03-12T10:25:18.233Z,70.67
2023-03-12T10:30:28.616Z,71.01
2023-03-12T10:35:35.658Z,69.94
2023-03-12T10:40:44.310Z,69.76
2023-03-12T10:46:04.806Z,67.65
2023-03-12T10:51:15.419Z,68.80
2023-03-12T10:56:23.386Z,68.70
2023-03-12T11:01:32.815Z,66.21
2023-03-12T11:06:39.720Z,67.63
2023-03-12T11:11:50.352Z,67.00
2023-03-12T11:16:58.567Z,66.92
2023-03-12T11:22:11.883Z,64.67
2023-03-12T11:27:32.635Z,64.85
2023-03-12T11:32:43.452Z,63.91
2023-03-12T11:38:05.198Z,63.74
2023-03-12T11:43:50.516Z,62.58
2023-03-12T11:49:13.306Z,64.09
2023-03-12T11:55:00.730Z,64.57
2023-03-12T12:00:18.817Z,64.11
2023-03-12T12:05:40.105Z,64.21
2023-03-12T12:11:00.355Z,63.60
2023-03-12T12:16:42.296Z,64.36
2023-03-12T12:22:05.324Z,63.14
2023-03-12T12:27:22.466Z,63.14
2023-03-12T12:32:48.367Z,63.90
2023-03-12T12:38:01.713Z,64.24
2023-03-12T12:43:25.687Z,62.28
2023-03-12T12:48:38.528Z,62.91
2023-03-12T12:53:55.518Z,63.65
2023-03-12T12:59:26.786Z,60.96
2023-03-12T13:04:39.210Z,61.63
2023-03-12T13:09:48.340Z,62.88
2023-03-12T13:14:57.914Z,62.55
2023-03-12T13:20:21.556Z,62.52
2023-03-12T13:25:52.882Z,63.59
2023-03-12T13:31:01.970Z,63.12
2023-03-12T13:36:23.989Z,62.89
2023-03-12T13:41:38.517Z,63.59
2023-03-12T13:46:49.341Z,64.76
2023-03-12T13:52:25.864Z,64.97
2023-03-12T13:57:41.224Z,63.75
2023-03-12T14:03:00.588Z,63.16
2023-03-12T14:08:30.664Z,62.74
2023-03-12T14:14:06.268Z,64.33
2023-03-12T14:19:16.473Z,64.19
2023-03-12T14:24:33.274Z,64.73
2023-03-12T14:29:45.487Z,64.58
2023-03-12T14:34:59.838Z,64.39
2023-03-12T14:40:22.551Z,65.98
2023-03-12T14:45:30.479Z,65.59
2023-03-12T14:50:41.779Z,65.03
2023-03-12T14:56:06.233Z,67.45
2023-03-12T15:01:19.455Z,66.62
2023-03-12T15:06:33.427Z,66.27
2023-03-12T15:11:43.367Z,66.74
2023-03-12T15:16:55.052Z,65.43
2023-03-12T15:22:03.754Z,66.30
2023-03-12T15:27:35.337Z,66.51
2023-03-12T15:32:43.422Z,67.52
2023-03-12T15:37:55.872Z,67.27
2023-03-12T15:43:08.051Z,66.54
2023-03-12T15:48:28.285Z,67.16
2023-03-12T15:53:40.835Z,66.82
2023-03-12T15:59:00.425Z,67.19
2023-03-12T16:04:11.556Z,65.66
2023-03-12T16:09:27.175Z,65.81
2023-03-12T16:14:37.606Z,67.03
2023-03-12T16:19:47.118Z,66.03
2023-03-12T16:24:57.951Z,66.64
2023-03-12T16:30:15.333Z,66.36
2023-03-12T16:35:24.253Z,68.24
2023-03-12T16:40:37.756Z,68.59
2023-03-12T16:45:52.541Z,69.29
2023-03-12T16:51:07.671Z,67.88
2023-03-12T16:56:20.613Z,68.31
2023-03-12T17:01:30.653Z,68.13
2023-03-12T17:06:41.130Z,68.33
2023-03-12T17:11:51.872Z,69.19
2023-03-12T17:17:02.978Z,71.21
2023-03-12T17:22:12.285Z,71.82
2023-03-12T17:27:22.224Z,72.49
2023-03-12T17:32:34.437Z,73.64
2023-03-12T17:37:44.222Z,73.98
2023-03-12T17:42:54.469Z,74.18
2023-03-12T17:48:04.942Z,73.96
2023-03-12T17:53:16.881Z,73.42
2023-03-12T17:58:27.253Z,73.92
2023-03-12T18:03:39.679Z,73.90
2023-03-12T18:08:48.738Z,74.33
2023-03-12T18:13:56.921Z,74.75
2023-03-12T18:19:06.727Z,75.19
2023-03-12T18:24:14.905Z,74.86
2023-03-12T18:29:24.465Z,74.32
2023-03-12T18:34:36.458Z,74.98
2023-03-12T18:39:47.161Z,75.77
2023-03-12T18:45:00.186Z,75.46
2023-03-12T18:50:15.678Z,75.05
2023-03-12T18:55:26.669Z,75.20
2023-03-12T19:00:36.683Z,75.65
2023-03-12T19:05:49.454Z,75.26
2023-03-12T19:11:00.573Z,75.87
2023-03-12T19:16:18.780Z,75.66
2023-03-12T19:21:39.584Z,75.71
2023-03-12T19:26:49.946Z,75.71
2023-03-12T19:32:00.985Z,75.71
2023-03-12T19:37:15.759Z,75.57
2023-03-12T19:42:26.930Z,75.94
2023-03-12T19:47:37.439Z,76.11
2023-03-12T19:52:50.141Z,76.85
2023-03-12T19:58:03.852Z,78.06
2023-03-12T20:03:15.200Z,78.66
2023-03-12T20:08:30.328Z,78.37
2023-03-12T20:13:41.732Z,78.33
2023-03-12T20:18:52.883Z,78.16
2023-03-12T20:24:07.155Z,77.98
2023-03-12T20:29:17.811Z,78.41
2023-03-12T20:34:28.491Z,78.48
2023-03-12T20:39:49.620Z,78.61
2023-03-12T20:45:00.404Z,78.57
2023-03-12T20:50:09.940Z,78.61
2023-03-12T20:55:21.665Z,79.07
2023-03-12T21:00:31.285Z,79.24
2023-03-12T21:05:41.352Z,79.36
2023-03-12T21:10:53.095Z,79.55
2023-03-12T21:16:05.056Z,79.60
2023-03-12T21:21:15.024Z,79.97
2023-03-12T21:26:23.939Z,80.83
2023-03-12T21:31:32.797Z,80.02
2023-03-12T21:36:41.197Z,79.99
2023-03-12T21:41:50.433Z,80.77
2023-03-12T21:46:56.552Z,80.98
2023-03-12T21:52:03.446Z,82.13
2023-03-12T21:57:11.641Z,82.10
2023-03-12T22:02:18.325Z,81.69
2023-03-12T22:07:24.956Z,81.71
2023-03-12T22:12:33.079Z,81.81
2023-03-12T22:17:39.668Z,82.75
2023-03-12T22:22:46.363Z,82.72
2023-03-12T22:27:54.689Z,82.90
2023-03-12T22:33:01.062Z,82.68
2023-03-12T22:38:07.563Z,83.07
2023-03-12T22:43:15.868Z,82.86
2023-03-12T22:48:22.516Z,82.96
2023-03-12T22:53:29.156Z,82.69
2023-03-12T22:58:38.047Z,82.29
2023-03-12T23:03:46.302Z,81.82
2023-03-12T23:08:52.963Z,82.33
2023-03-12T23:14:00.755Z,82.22
2023-03-12T23:19:07.271Z,82.54
2023-03-12T23:24:13.556Z,83.18
2023-03-12T23:29:21.546Z,82.93
2023-03-12T23:34:28.585Z,83.23
2023-03-12T23:39:44.980Z,82.88
2023-03-12T23:44:59.887Z,82.85
2023-03-12T23:50:07.777Z,82.64
2023-03-12T23:55:14.573Z,82.70
